Fukuoka Airport
RJFF : now visible

Airfield :











YOU CAN JOIN US ON...

 
LOGIN :

Register | Disclaimer

   EN    FR    IT 

 









Legend :    VFR   Marginal VFR   IFR   Intensive IFR   Very Intensive IFR
Visi :
Ceiling :
>= 8 km
>= 3000ft
5 to 8 km
1000 to 3000 ft
1500m to 5 km
500 to 1000 ft
800 to 1500m
200 to 500 ft
< 800m
< 200 ft
Symbols :   Thunderstorms  Fog  Heavy snow  Heavy precipitations  Wind > 20 kt






- Airport Elevation : 32 ft
- IATA code : FUK


RJFF - Fukuoka

CURRENT METAR :
  • 210530Z 05006KT 330V120 9999 FEW035 16/04 Q1027 NOSIG RMK 1CU035 A3033

EXPIRED METARs :
  • 210500Z 07008KT 010V110 9999 FEW035 16/03 Q1027 BECMG 04008KT RMK 1CU035 A3034
  • 210430Z 05009KT 010V090 9999 FEW035 16/03 Q1027 NOSIG
  • 210400Z 24004KT 160V300 9999 FEW040 15/03 Q1027 BECMG 04008KT
  • 210330Z 17004KT 080V250 9999 FEW040 16/04 Q1027 NOSIG
  • 210300Z VRB04KT 9999 FEW040 15/05 Q1027 BECMG 04008KT
  • 210230Z 03007KT 340V060 9999 FEW040 15/03 Q1028 NOSIG RMK 1CU040 A3037

TAF TAF RJFF
Valid from the 21 at 06:00 until the 22 at 12:00 UTC


210506Z 2106/2212 04008KT 9999 FEW040
BECMG 2108/2110 14006KT
BECMG 2203/2206 03006KT
BECMG 2209/2212 14005KT



MET'MAP, your aeronautical weather chart ! - Copyright ORBIFLY December 2007 - Disclaimer

ORBIFLY MET'MAP TEAM :

Programming & Development : Alexandra Zaïnal
Concept & Development : Baudouin d'Aumeries
Co-Development & Prog : Marc-Olivier Méhu
Technical & hardware support : Manuel Goepfert

Contact : metmap@orbifly.com




SOURCES & CREDITS :

   NOAA       Earth
Advisory